createdAt,value
2022-09-12T00:08:53.099Z,101591.84
2022-09-12T00:18:56.294Z,101582.34
2022-09-12T00:29:00.692Z,101577.16
2022-09-12T00:39:04.136Z,101575.41
2022-09-12T00:49:15.301Z,101571.91
2022-09-12T00:59:22.952Z,101573.59
2022-09-12T01:09:27.342Z,101539.94
2022-09-12T01:19:58.493Z,101549.44
2022-09-12T01:30:30.975Z,101531.34
2022-09-12T01:40:43.598Z,101539.94
2022-09-12T01:50:54.036Z,101531.31
2022-09-12T02:01:03.514Z,101517.50
2022-09-12T02:11:10.664Z,101501.94
2022-09-12T02:21:14.204Z,101498.44
2022-09-12T02:31:24.001Z,101506.19
2022-09-12T02:41:27.551Z,101507.00
2022-09-12T02:51:32.728Z,101501.81
2022-09-12T03:01:44.783Z,101483.72
2022-09-12T03:12:09.658Z,101479.41
2022-09-12T03:22:17.372Z,101482.00
2022-09-12T03:32:21.701Z,101475.09
2022-09-12T03:42:24.633Z,101469.94
2022-09-12T03:52:29.276Z,101464.72
2022-09-12T04:02:32.219Z,101457.84
2022-09-12T04:12:36.663Z,101446.69
2022-09-12T04:22:39.591Z,101441.53
2022-09-12T04:32:43.864Z,101437.28
2022-09-12T04:42:46.775Z,101433.00
2022-09-12T04:52:52.740Z,101432.13
2022-09-12T05:02:55.668Z,101434.72
2022-09-12T05:13:01.897Z,101437.28
2022-09-12T05:23:05.483Z,101433.00
2022-09-12T05:33:09.805Z,101442.50
2022-09-12T05:43:13.309Z,101434.72
2022-09-12T05:53:17.790Z,101452.81
2022-09-12T06:03:20.819Z,101449.38
2022-09-12T06:13:25.121Z,101454.56
2022-09-12T06:23:28.066Z,101454.53
2022-09-12T06:33:33.316Z,101441.59
2022-09-12T06:43:37.017Z,101443.28
2022-09-12T06:53:41.773Z,101442.28
2022-09-12T07:03:48.293Z,101443.91
2022-09-12T07:13:55.222Z,101439.50
2022-09-12T07:23:58.890Z,101433.25
2022-09-12T07:34:06.255Z,101424.31
2022-09-12T07:44:09.554Z,101430.91
2022-09-12T07:54:14.136Z,101422.66
2022-09-12T08:04:17.207Z,101420.44
2022-09-12T08:14:21.920Z,101423.16
2022-09-12T08:24:25.411Z,101426.69
2022-09-12T08:34:29.854Z,101428.44
2022-09-12T08:44:42.894Z,101432.75
2022-09-12T08:54:47.652Z,101423.00
2022-09-12T09:04:53.070Z,101413.06
2022-09-12T09:15:25.175Z,101410.31
2022-09-12T09:25:42.129Z,101402.69
2022-09-12T09:35:49.044Z,101399.25
2022-09-12T09:45:53.349Z,101381.69
2022-09-12T09:55:58.900Z,101370.31
2022-09-12T10:06:04.165Z,101349.06
2022-09-12T10:16:20.326Z,101341.78
2022-09-12T10:26:23.579Z,101328.38
2022-09-12T10:36:38.584Z,101317.19
2022-09-12T10:46:41.661Z,101304.50
2022-09-12T10:57:03.072Z,101283.50
2022-09-12T11:07:18.573Z,101267.41
2022-09-12T11:17:34.463Z,101268.75
2022-09-12T11:27:58.541Z,101254.97
2022-09-12T11:38:30.318Z,101253.63
2022-09-12T11:48:45.877Z,101253.66
2022-09-12T11:58:57.200Z,101260.66
2022-09-12T12:09:00.523Z,101239.69
2022-09-12T12:19:10.984Z,101226.56
2022-09-12T12:29:15.111Z,101229.03
2022-09-12T12:40:03.196Z,101219.22
2022-09-12T12:50:13.462Z,101212.75
2022-09-12T13:00:33.790Z,101186.19
2022-09-12T13:10:39.160Z,101192.59
2022-09-12T13:20:49.796Z,101174.09
2022-09-12T13:31:01.880Z,101160.47
2022-09-12T13:41:25.375Z,101156.31
2022-09-12T13:51:32.598Z,101151.13
2022-09-12T14:01:40.316Z,101139.00
2022-09-12T14:11:44.739Z,101119.59
2022-09-12T14:21:48.256Z,101113.53
2022-09-12T14:32:03.807Z,101108.84
2022-09-12T14:42:13.434Z,101083.03
2022-09-12T14:52:28.771Z,101085.72
2022-09-12T15:02:31.937Z,101085.84
2022-09-12T15:12:36.198Z,101067.41
2022-09-12T15:22:40.216Z,101056.84
2022-09-12T15:32:45.950Z,101048.69
2022-09-12T15:42:48.973Z,101051.72
2022-09-12T15:52:53.652Z,101055.53
2022-09-12T16:02:57.014Z,101050.56
2022-09-12T16:13:01.371Z,101031.63
2022-09-12T16:23:04.532Z,101027.22
2022-09-12T16:33:08.827Z,101023.56
2022-09-12T16:43:11.843Z,101020.16
2022-09-12T16:53:16.368Z,101007.59
2022-09-12T17:03:19.456Z,100997.44
2022-09-12T17:13:23.967Z,100981.13
2022-09-12T17:23:27.316Z,100961.19
2022-09-12T17:33:32.178Z,100942.28
2022-09-12T17:43:36.132Z,100953.50
2022-09-12T17:53:41.495Z,100962.09
2022-09-12T18:03:44.606Z,100958.28
2022-09-12T18:13:49.265Z,100959.53
2022-09-12T18:23:52.699Z,100967.78
2022-09-12T18:33:57.357Z,100982.13
2022-09-12T18:44:02.077Z,100998.00
2022-09-12T18:54:08.872Z,100988.34
2022-09-12T19:04:13.623Z,100972.75
2022-09-12T19:14:19.729Z,100960.56
2022-09-12T19:24:22.804Z,100945.38
2022-09-12T19:34:27.161Z,100948.22
2022-09-12T19:44:31.077Z,100945.44
2022-09-12T19:54:35.800Z,100953.03
2022-09-12T20:04:39.187Z,100942.41
2022-09-12T20:14:43.668Z,100926.69
2022-09-12T20:24:46.513Z,100921.31
2022-09-12T20:34:50.955Z,100915.75
2022-09-12T20:44:53.662Z,100918.09
2022-09-12T20:54:58.050Z,100920.59
2022-09-12T21:05:01.130Z,100930.66
2022-09-12T21:15:06.087Z,100889.19
2022-09-12T21:25:10.778Z,100916.22
2022-09-12T21:35:15.408Z,100943.19
2022-09-12T21:45:19.377Z,100944.44
2022-09-12T21:55:27.152Z,100950.41
2022-09-12T22:05:32.664Z,100956.47
2022-09-12T22:15:40.610Z,100956.44
2022-09-12T22:25:44.165Z,100947.59
2022-09-12T22:35:48.459Z,100942.31
2022-09-12T22:45:51.382Z,100924.97
2022-09-12T22:55:55.729Z,100923.34
2022-09-12T23:05:59.365Z,100910.41
2022-09-12T23:16:05.807Z,100898.34
2022-09-12T23:26:12.638Z,100879.44
2022-09-12T23:36:17.298Z,100878.78
2022-09-12T23:46:21.474Z,100878.84
2022-09-12T23:56:26.028Z,100880.63
